Estación Meteorológica Peña el Pijo (Robertgarden) [ 12/11/18 10:11:52 CET ]

Fecha Hora Presion(HPa) Temp (°C) Humedad % Rocio (°C) Viento ( m/s) Direccion Lluvia 1Hora(mm) Lluvia 24H(mm) LLuvia Total(mm)
2018-Apr-14 01:01:39 1002.600 5.2 85 2.8     0.51 3.10 200.98
2018-Apr-14 02:01:08 1001.900 5.1 86 2.9       3.10 200.98
2018-Apr-14 03:01:35 1002.100 3.9 86 1.8       3.10 200.98
2018-Apr-14 04:01:42 1002.800 3.3 87 1.3       3.10 200.98
2018-Apr-14 05:01:52 1003.000 2.5 87 0.5       3.10 200.98
2018-Apr-14 06:01:45 1003.700 1.9 87 -0.1       3.10 200.98
2018-Apr-14 07:01:55 1004.200 3.9 89 2.2       3.10 200.98
2018-Apr-14 08:01:50 1004.600 8.4 89 6.7       3.10 200.98
2018-Apr-14 09:01:34 1004.600 10.8 76 6.7       3.10 200.98
2018-Apr-14 10:01:38 1005.300 13.6 53 4.2 4.0 NE   3.10 200.98
2018-Apr-14 11:02:01 1005.400 14.3 47 3.1       3.10 200.98
2018-Apr-14 12:01:46 1005.400 14.9 43 2.4 4.0 NE   3.10 200.98
2018-Apr-14 13:01:40 1005.300 16.2 42 3.2 0.7 ENE   3.10 200.98
2018-Apr-14 14:01:43 1005.100 15.3 44 3.0       3.10 200.98
2018-Apr-14 15:01:49 1005.000 14.2 47 3.0 0.6 SSW   3.10 200.98
2018-Apr-14 16:01:43 1005.500 14.8 45 2.9 3.0 WNW   3.10 200.98
2018-Apr-14 17:01:47 1005.700 14.9 45 3.0       2.07 200.98
2018-Apr-14 18:01:52 1006.400 12.2 50 2.1       1.55 200.98
2018-Apr-14 19:01:47 1006.700 10.6 55 1.9       0.51 200.98
2018-Apr-14 20:01:36 1007.500 7.9 65 1.7       0.51 200.98
2018-Apr-14 21:01:42 1008.200 5.8 71 1.0       0.51 200.98
2018-Apr-14 22:01:45 1008.300 4.5 76 0.6       0.51 200.98
2018-Apr-14 23:01:51 1008.300 4.3 78 0.8       0.51 200.98

Temperatura Máxima:16°    Temperatura Mínima:
Presión Máxima:1008.300 Hpa    Presión Mínima:1001.900 Hpa


Volver